createdAt,value
2023-07-25T00:03:51.256Z,99449.23
2023-07-25T00:08:59.388Z,99448.50
2023-07-25T00:14:07.351Z,99452.29
2023-07-25T00:19:15.121Z,99453.05
2023-07-25T00:24:22.926Z,99456.32
2023-07-25T00:29:30.911Z,99468.88
2023-07-25T00:34:38.558Z,99477.11
2023-07-25T00:39:46.638Z,99467.67
2023-07-25T00:44:54.612Z,99459.92
2023-07-25T00:50:02.634Z,99460.21
2023-07-25T00:55:12.143Z,99468.80
2023-07-25T01:00:19.960Z,99464.78
2023-07-25T01:05:31.015Z,99470.98
2023-07-25T01:10:39.760Z,99468.44
2023-07-25T01:15:47.944Z,99471.27
2023-07-25T01:20:55.961Z,99474.73
2023-07-25T01:26:03.995Z,99482.15
2023-07-25T01:31:11.697Z,99486.88
2023-07-25T01:36:19.393Z,99489.26
2023-07-25T01:41:27.351Z,99489.17
2023-07-25T01:46:35.470Z,99480.79
2023-07-25T01:51:43.517Z,99483.89
2023-07-25T01:56:51.441Z,99488.57
2023-07-25T02:01:59.461Z,99503.61
2023-07-25T02:07:08.369Z,99511.66
2023-07-25T02:12:16.051Z,99508.53
2023-07-25T02:17:23.741Z,99515.47
2023-07-25T02:22:31.687Z,99511.98
2023-07-25T02:27:39.355Z,99522.16
2023-07-25T02:32:47.107Z,99522.12
2023-07-25T02:37:55.127Z,99525.94
2023-07-25T02:43:04.108Z,99541.31
2023-07-25T02:48:11.889Z,99545.48
2023-07-25T02:53:19.681Z,99538.34
2023-07-25T02:58:27.432Z,99545.34
2023-07-25T03:03:35.132Z,99542.82
2023-07-25T03:08:42.813Z,99543.92
2023-07-25T03:13:50.523Z,99546.69
2023-07-25T03:18:58.194Z,99556.59
2023-07-25T03:24:06.928Z,99565.67
2023-07-25T03:29:14.648Z,99559.23
2023-07-25T03:34:22.357Z,99560.80
2023-07-25T03:39:30.036Z,99559.12
2023-07-25T03:44:37.746Z,99556.04
2023-07-25T03:49:47.118Z,99557.45
2023-07-25T03:54:54.812Z,99559.45
2023-07-25T04:00:02.941Z,99562.46
2023-07-25T04:05:11.571Z,99570.88
2023-07-25T04:10:19.397Z,99573.73
2023-07-25T04:15:27.224Z,99577.16
2023-07-25T04:20:34.927Z,99582.63
2023-07-25T04:25:42.702Z,99588.20
2023-07-25T04:30:50.502Z,99591.59
2023-07-25T04:35:58.291Z,99600.20
2023-07-25T04:41:06.117Z,99603.08
2023-07-25T04:46:13.800Z,99601.73
2023-07-25T04:51:21.473Z,99599.89
2023-07-25T04:56:29.177Z,99608.13
2023-07-25T05:01:37.034Z,99610.38
2023-07-25T05:06:44.767Z,99620.96
2023-07-25T05:11:53.130Z,99611.94
2023-07-25T05:17:00.791Z,99616.70
2023-07-25T05:22:08.818Z,99613.52
2023-07-25T05:27:16.504Z,99606.52
2023-07-25T05:32:25.505Z,99613.78
2023-07-25T05:37:39.163Z,99615.21
2023-07-25T05:42:46.926Z,99622.48
2023-07-25T05:47:54.706Z,99615.38
2023-07-25T05:53:02.387Z,99623.27
2023-07-25T05:58:10.099Z,99633.17
2023-07-25T06:03:18.620Z,99642.48
2023-07-25T06:08:26.427Z,99639.42
2023-07-25T06:13:35.045Z,99639.95
2023-07-25T06:18:42.835Z,99651.33
2023-07-25T06:23:50.657Z,99658.02
2023-07-25T06:28:58.302Z,99666.16
2023-07-25T06:34:06.066Z,99661.28
2023-07-25T06:39:13.816Z,99658.28
2023-07-25T06:44:21.533Z,99663.29
2023-07-25T06:49:29.256Z,99672.30
2023-07-25T06:54:36.982Z,99674.60
2023-07-25T06:59:44.655Z,99682.27
2023-07-25T07:04:52.974Z,99696.91
2023-07-25T07:10:00.678Z,99700.61
2023-07-25T07:15:10.202Z,99696.17
2023-07-25T07:20:18.261Z,99696.70
2023-07-25T07:25:26.924Z,99703.85
2023-07-25T07:30:34.670Z,99705.46
2023-07-25T07:35:42.404Z,99706.00
2023-07-25T07:40:50.575Z,99709.93
2023-07-25T07:51:27.012Z,99711.61
2023-07-25T07:56:35.315Z,99697.30
2023-07-25T08:01:51.858Z,99688.58
2023-07-25T08:06:59.692Z,99674.65
2023-07-25T08:12:09.125Z,99652.91
2023-07-25T08:17:17.751Z,99634.43
2023-07-25T08:22:25.471Z,99647.26
2023-07-25T08:27:33.183Z,99661.55
2023-07-25T08:32:40.881Z,99663.69
2023-07-25T08:37:48.616Z,99670.48
2023-07-25T08:43:04.168Z,99690.17
2023-07-25T08:48:15.655Z,99694.64
2023-07-25T08:53:25.453Z,99692.45
2023-07-25T08:58:33.930Z,99694.27
2023-07-25T09:03:43.865Z,99699.14
2023-07-25T09:08:51.688Z,99697.95
2023-07-25T09:13:59.395Z,99707.02
2023-07-25T09:19:07.553Z,99708.76
2023-07-25T09:24:15.345Z,99710.11
2023-07-25T09:29:28.961Z,99706.65
2023-07-25T09:34:38.643Z,99703.21
2023-07-25T09:39:47.644Z,99693.17
2023-07-25T09:44:58.828Z,99673.54
2023-07-25T09:50:08.549Z,99668.21
2023-07-25T09:55:16.232Z,99672.88
2023-07-25T10:00:24.624Z,99677.49
2023-07-25T10:05:32.418Z,99682.80
2023-07-25T10:10:41.757Z,99683.70
2023-07-25T10:15:50.492Z,99675.45
2023-07-25T10:20:58.628Z,99681.59
2023-07-25T10:26:18.434Z,99687.55
2023-07-25T10:31:35.068Z,99688.81
2023-07-25T10:36:43.936Z,99694.15
2023-07-25T10:41:57.062Z,99690.86
2023-07-25T10:47:24.929Z,99698.95
2023-07-25T10:52:46.361Z,99700.91
2023-07-25T10:58:10.912Z,99708.23
2023-07-25T11:03:38.558Z,99697.67
2023-07-25T11:08:46.260Z,99703.45
2023-07-25T11:13:55.203Z,99700.15
2023-07-25T11:19:03.859Z,99709.95
2023-07-25T11:24:13.594Z,99700.17
2023-07-25T11:29:21.425Z,99696.41
2023-07-25T11:34:29.254Z,99697.45
2023-07-25T11:39:37.117Z,99700.25
2023-07-25T11:44:46.879Z,99692.48
2023-07-25T11:50:10.151Z,99679.99
2023-07-25T11:56:01.729Z,99671.83
2023-07-25T12:01:13.976Z,99674.35
2023-07-25T12:06:32.649Z,99663.65
2023-07-25T12:11:48.313Z,99665.88
2023-07-25T12:16:57.097Z,99649.12
2023-07-25T12:22:10.167Z,99650.35
2023-07-25T12:27:22.411Z,99645.94
2023-07-25T12:32:31.189Z,99650.27
2023-07-25T12:37:40.070Z,99657.24
2023-07-25T12:42:48.613Z,99667.95
2023-07-25T12:47:57.066Z,99660.03
2023-07-25T12:53:05.745Z,99662.04
2023-07-25T12:58:14.444Z,99662.51
2023-07-25T13:03:27.376Z,99656.77
2023-07-25T13:08:36.237Z,99655.66
2023-07-25T13:13:45.206Z,99651.23
2023-07-25T13:18:53.941Z,99650.47
2023-07-25T13:24:02.419Z,99645.23
2023-07-25T13:29:10.877Z,99631.69
2023-07-25T13:34:19.643Z,99623.70
2023-07-25T13:39:28.727Z,99624.33
2023-07-25T13:44:37.232Z,99618.87
2023-07-25T13:49:46.226Z,99612.08
2023-07-25T13:54:55.068Z,99617.74
2023-07-25T14:00:05.008Z,99614.06
2023-07-25T14:05:14.608Z,99608.81
2023-07-25T14:10:23.293Z,99605.80
2023-07-25T14:15:32.829Z,99602.31
2023-07-25T14:20:41.716Z,99613.61
2023-07-25T14:25:50.423Z,99614.82
2023-07-25T14:30:59.234Z,99609.50
2023-07-25T14:36:08.373Z,99612.45
2023-07-25T14:41:17.832Z,99609.94
2023-07-25T14:46:26.325Z,99615.52
2023-07-25T14:51:36.423Z,99619.75
2023-07-25T14:56:45.459Z,99612.51
2023-07-25T15:01:54.278Z,99608.22
2023-07-25T15:07:02.754Z,99607.11
2023-07-25T15:12:11.681Z,99612.42
2023-07-25T15:17:23.779Z,99617.16
2023-07-25T15:22:33.012Z,99613.09
2023-07-25T15:27:41.747Z,99604.69
2023-07-25T15:32:51.414Z,99603.69
2023-07-25T15:37:59.960Z,99600.65
2023-07-25T15:43:10.932Z,99601.02
2023-07-25T15:48:20.095Z,99600.34
2023-07-25T15:53:28.863Z,99598.69
2023-07-25T15:58:37.384Z,99595.70
2023-07-25T16:03:48.397Z,99599.95
2023-07-25T16:08:58.068Z,99597.23
2023-07-25T16:14:07.238Z,99599.92
2023-07-25T16:19:17.222Z,99598.13
2023-07-25T16:24:26.825Z,99593.88
2023-07-25T16:29:35.372Z,99599.91
2023-07-25T16:34:44.259Z,99595.86
2023-07-25T16:39:53.189Z,99592.67
2023-07-25T16:45:02.897Z,99583.79
2023-07-25T16:50:13.074Z,99581.61
2023-07-25T16:55:22.029Z,99583.60
2023-07-25T17:00:31.143Z,99577.80
2023-07-25T17:05:39.633Z,99578.30
2023-07-25T17:10:49.446Z,99583.71
2023-07-25T17:15:58.459Z,99589.40
2023-07-25T17:21:07.507Z,99598.66
2023-07-25T17:26:15.983Z,99605.05
2023-07-25T17:31:24.515Z,99601.46
2023-07-25T17:36:33.136Z,99598.42
2023-07-25T17:41:42.184Z,99608.73
2023-07-25T17:46:51.413Z,99607.83
2023-07-25T17:52:00.337Z,99601.56
2023-07-25T17:57:09.171Z,99604.63
2023-07-25T18:02:17.650Z,99611.06
2023-07-25T18:07:27.126Z,99619.52
2023-07-25T18:12:35.636Z,99620.33
2023-07-25T18:17:44.168Z,99623.98
2023-07-25T18:22:52.729Z,99626.37
2023-07-25T18:28:02.079Z,99623.83
2023-07-25T18:33:14.202Z,99625.09
2023-07-25T18:38:24.728Z,99624.66
2023-07-25T18:43:33.899Z,99629.44
2023-07-25T18:48:42.737Z,99631.13
2023-07-25T18:53:51.688Z,99636.38
2023-07-25T18:59:00.592Z,99638.40
2023-07-25T19:04:11.282Z,99638.27
2023-07-25T19:09:21.654Z,99644.47
2023-07-25T19:14:31.079Z,99648.31
2023-07-25T19:19:41.465Z,99659.70
2023-07-25T19:24:50.228Z,99661.73
2023-07-25T19:29:59.153Z,99661.98
2023-07-25T19:35:10.470Z,99666.45
2023-07-25T19:40:20.072Z,99679.72
2023-07-25T19:45:28.475Z,99684.55
2023-07-25T19:50:36.553Z,99683.58
2023-07-25T19:55:45.952Z,99686.73
2023-07-25T20:00:54.499Z,99692.35
2023-07-25T20:06:03.362Z,99688.00
2023-07-25T20:11:11.775Z,99692.20
2023-07-25T20:16:20.236Z,99696.30
2023-07-25T20:21:29.090Z,99696.40
2023-07-25T20:26:39.147Z,99700.67
2023-07-25T20:31:49.903Z,99699.70
2023-07-25T20:36:58.325Z,99705.59
2023-07-25T20:42:07.283Z,99706.73
2023-07-25T20:47:15.767Z,99711.17
2023-07-25T20:52:24.284Z,99710.86
2023-07-25T20:57:33.122Z,99714.95
2023-07-25T21:02:42.093Z,99715.34
2023-07-25T21:07:50.878Z,99720.32
2023-07-25T21:12:59.635Z,99726.27
2023-07-25T21:18:13.753Z,99733.11
2023-07-25T21:23:25.612Z,99732.92
2023-07-25T21:28:34.520Z,99739.14
2023-07-25T21:33:43.021Z,99743.05
2023-07-25T21:38:52.614Z,99751.38
2023-07-25T21:44:02.380Z,99754.16
2023-07-25T21:49:10.874Z,99760.16
2023-07-25T21:54:19.982Z,99762.90
2023-07-25T21:59:28.556Z,99769.17
2023-07-25T22:04:37.095Z,99782.41
2023-07-25T22:09:45.969Z,99793.13
2023-07-25T22:14:54.509Z,99794.11
2023-07-25T22:20:03.229Z,99789.64
2023-07-25T22:25:12.070Z,99792.14
2023-07-25T22:30:20.891Z,99788.73
2023-07-25T22:35:29.444Z,99790.61
2023-07-25T22:40:37.916Z,99797.91
2023-07-25T22:45:46.574Z,99798.27
2023-07-25T22:50:55.937Z,99795.30
2023-07-25T22:56:05.825Z,99796.52
2023-07-25T23:01:15.231Z,99801.00
2023-07-25T23:06:23.718Z,99803.54
2023-07-25T23:11:33.005Z,99804.36
2023-07-25T23:16:41.496Z,99801.01
2023-07-25T23:21:50.308Z,99804.17
2023-07-25T23:26:58.989Z,99802.66
2023-07-25T23:32:09.223Z,99806.21
2023-07-25T23:37:17.869Z,99806.52
2023-07-25T23:42:26.360Z,99811.16
2023-07-25T23:47:34.853Z,99811.83
2023-07-25T23:52:43.565Z,99815.52
2023-07-25T23:57:52.041Z,99813.39
